sensor_id;sensor_type;location;lat;lon;timestamp;pressure;altitude;pressure_sealevel;temperature;humidity
19672;BME280;9983;51.114;13.788;2022-12-22T00:00:34;98817.00;;;3.83;100.00
19672;BME280;9983;51.114;13.788;2022-12-22T00:05:53;98822.53;;;3.90;100.00
19672;BME280;9983;51.114;13.788;2022-12-22T00:11:12;98815.00;;;3.85;100.00
19672;BME280;9983;51.114;13.788;2022-12-22T00:16:34;98816.09;;;3.92;100.00
19672;BME280;9983;51.114;13.788;2022-12-22T00:21:52;98808.75;;;4.04;100.00
19672;BME280;9983;51.114;13.788;2022-12-22T00:27:14;98813.31;;;4.29;100.00
19672;BME280;9983;51.114;13.788;2022-12-22T00:32:35;98809.25;;;4.17;100.00
19672;BME280;9983;51.114;13.788;2022-12-22T00:37:55;98803.25;;;4.33;100.00
19672;BME280;9983;51.114;13.788;2022-12-22T00:43:13;98805.91;;;4.50;100.00
19672;BME280;9983;51.114;13.788;2022-12-22T00:48:32;98800.47;;;4.34;100.00
19672;BME280;9983;51.114;13.788;2022-12-22T00:53:51;98790.03;;;4.58;100.00
19672;BME280;9983;51.114;13.788;2022-12-22T00:59:09;98784.88;;;4.57;100.00
19672;BME280;9983;51.114;13.788;2022-12-22T01:04:28;98774.19;;;4.67;100.00
19672;BME280;9983;51.114;13.788;2022-12-22T01:09:50;98776.84;;;4.67;100.00
19672;BME280;9983;51.114;13.788;2022-12-22T01:15:13;98757.94;;;4.70;100.00
19672;BME280;9983;51.114;13.788;2022-12-22T01:20:32;98764.50;;;4.57;100.00
19672;BME280;9983;51.114;13.788;2022-12-22T01:25:51;98749.81;;;4.71;100.00
19672;BME280;9983;51.114;13.788;2022-12-22T01:31:17;98746.59;;;4.60;100.00
19672;BME280;9983;51.114;13.788;2022-12-22T01:36:36;98733.69;;;4.65;100.00
19672;BME280;9983;51.114;13.788;2022-12-22T01:41:54;98719.41;;;4.66;100.00
19672;BME280;9983;51.114;13.788;2022-12-22T01:52:44;98723.97;;;4.55;100.00
19672;BME280;9983;51.114;13.788;2022-12-22T01:58:19;98718.03;;;4.62;100.00
19672;BME280;9983;51.114;13.788;2022-12-22T02:03:41;98713.16;;;4.49;100.00
19672;BME280;9983;51.114;13.788;2022-12-22T02:09:11;98705.09;;;4.58;100.00
19672;BME280;9983;51.114;13.788;2022-12-22T02:14:41;98693.50;;;4.60;100.00
19672;BME280;9983;51.114;13.788;2022-12-22T02:25:46;98688.09;;;4.43;100.00
19672;BME280;9983;51.114;13.788;2022-12-22T02:31:08;98672.81;;;4.71;100.00
19672;BME280;9983;51.114;13.788;2022-12-22T02:36:55;98665.69;;;4.72;100.00
19672;BME280;9983;51.114;13.788;2022-12-22T02:42:37;98669.38;;;5.13;100.00
19672;BME280;9983;51.114;13.788;2022-12-22T02:48:10;98668.63;;;5.45;100.00
19672;BME280;9983;51.114;13.788;2022-12-22T02:53:31;98656.41;;;5.60;100.00
19672;BME280;9983;51.114;13.788;2022-12-22T02:58:51;98654.78;;;5.83;100.00
19672;BME280;9983;51.114;13.788;2022-12-22T03:04:10;98645.16;;;5.98;100.00
19672;BME280;9983;51.114;13.788;2022-12-22T03:09:29;98635.50;;;6.22;100.00
19672;BME280;9983;51.114;13.788;2022-12-22T03:14:48;98632.84;;;6.30;100.00
19672;BME280;9983;51.114;13.788;2022-12-22T03:20:07;98604.22;;;6.32;100.00
19672;BME280;9983;51.114;13.788;2022-12-22T03:25:25;98608.53;;;6.41;100.00
19672;BME280;9983;51.114;13.788;2022-12-22T03:30:44;98589.22;;;6.39;100.00
19672;BME280;9983;51.114;13.788;2022-12-22T03:35:45;98582.59;;;6.43;100.00
19672;BME280;9983;51.114;13.788;2022-12-22T03:40:45;98578.25;;;6.42;100.00
19672;BME280;9983;51.114;13.788;2022-12-22T03:45:45;98563.59;;;6.38;100.00
19672;BME280;9983;51.114;13.788;2022-12-22T03:51:05;98562.28;;;6.42;100.00
19672;BME280;9983;51.114;13.788;2022-12-22T03:56:05;98568.28;;;6.36;100.00
19672;BME280;9983;51.114;13.788;2022-12-22T04:01:06;98567.94;;;6.39;100.00
19672;BME280;9983;51.114;13.788;2022-12-22T04:06:07;98561.88;;;6.61;100.00
19672;BME280;9983;51.114;13.788;2022-12-22T04:11:10;98563.19;;;6.65;100.00
19672;BME280;9983;51.114;13.788;2022-12-22T04:16:29;98552.88;;;6.62;100.00
19672;BME280;9983;51.114;13.788;2022-12-22T04:21:30;98547.84;;;6.75;100.00
19672;BME280;9983;51.114;13.788;2022-12-22T04:26:30;98538.50;;;6.79;100.00
19672;BME280;9983;51.114;13.788;2022-12-22T04:31:31;98528.88;;;6.70;100.00
19672;BME280;9983;51.114;13.788;2022-12-22T04:36:31;98535.66;;;6.81;100.00
19672;BME280;9983;51.114;13.788;2022-12-22T04:41:31;98532.78;;;6.91;100.00
19672;BME280;9983;51.114;13.788;2022-12-22T04:46:31;98520.63;;;6.88;100.00
19672;BME280;9983;51.114;13.788;2022-12-22T04:51:32;98507.22;;;6.73;100.00
19672;BME280;9983;51.114;13.788;2022-12-22T04:56:32;98513.31;;;6.90;100.00
19672;BME280;9983;51.114;13.788;2022-12-22T05:01:32;98511.09;;;7.02;100.00
19672;BME280;9983;51.114;13.788;2022-12-22T05:06:33;98505.75;;;7.02;100.00
19672;BME280;9983;51.114;13.788;2022-12-22T05:11:33;98495.56;;;7.05;100.00
19672;BME280;9983;51.114;13.788;2022-12-22T05:16:33;98475.44;;;7.03;100.00
19672;BME280;9983;51.114;13.788;2022-12-22T05:21:33;98478.13;;;7.03;100.00
19672;BME280;9983;51.114;13.788;2022-12-22T05:26:34;98472.13;;;7.01;100.00
19672;BME280;9983;51.114;13.788;2022-12-22T05:31:34;98475.50;;;6.86;100.00
19672;BME280;9983;51.114;13.788;2022-12-22T05:36:34;98470.63;;;6.98;100.00
19672;BME280;9983;51.114;13.788;2022-12-22T05:41:34;98462.16;;;6.95;100.00
19672;BME280;9983;51.114;13.788;2022-12-22T05:46:35;98455.28;;;7.23;100.00
19672;BME280;9983;51.114;13.788;2022-12-22T05:51:35;98447.03;;;7.18;100.00
19672;BME280;9983;51.114;13.788;2022-12-22T05:56:35;98449.38;;;7.13;100.00
19672;BME280;9983;51.114;13.788;2022-12-22T06:01:36;98442.63;;;7.25;100.00
19672;BME280;9983;51.114;13.788;2022-12-22T06:06:36;98436.91;;;7.28;100.00
19672;BME280;9983;51.114;13.788;2022-12-22T06:11:36;98435.84;;;7.37;100.00
19672;BME280;9983;51.114;13.788;2022-12-22T06:16:36;98430.16;;;7.40;100.00
19672;BME280;9983;51.114;13.788;2022-12-22T06:21:36;98427.78;;;7.45;100.00
19672;BME280;9983;51.114;13.788;2022-12-22T06:26:37;98424.25;;;7.30;100.00
19672;BME280;9983;51.114;13.788;2022-12-22T06:31:37;98421.59;;;7.45;100.00
19672;BME280;9983;51.114;13.788;2022-12-22T06:36:37;98419.84;;;7.37;100.00
19672;BME280;9983;51.114;13.788;2022-12-22T06:41:38;98426.84;;;7.38;100.00
19672;BME280;9983;51.114;13.788;2022-12-22T06:46:57;98434.13;;;7.44;100.00
19672;BME280;9983;51.114;13.788;2022-12-22T06:51:57;98427.31;;;7.42;100.00
19672;BME280;9983;51.114;13.788;2022-12-22T06:56:58;98440.69;;;7.56;100.00
19672;BME280;9983;51.114;13.788;2022-12-22T07:01:58;98432.03;;;7.54;100.00
19672;BME280;9983;51.114;13.788;2022-12-22T07:06:58;98427.34;;;7.71;100.00
19672;BME280;9983;51.114;13.788;2022-12-22T07:11:58;98410.34;;;7.72;100.00
19672;BME280;9983;51.114;13.788;2022-12-22T07:16:59;98405.94;;;7.65;100.00
19672;BME280;9983;51.114;13.788;2022-12-22T07:21:59;98399.69;;;7.87;100.00
19672;BME280;9983;51.114;13.788;2022-12-22T07:26:59;98389.38;;;7.84;100.00
19672;BME280;9983;51.114;13.788;2022-12-22T07:31:59;98393.34;;;7.88;100.00
19672;BME280;9983;51.114;13.788;2022-12-22T07:37:00;98393.97;;;7.90;100.00
19672;BME280;9983;51.114;13.788;2022-12-22T07:42:00;98373.75;;;7.81;100.00
19672;BME280;9983;51.114;13.788;2022-12-22T07:47:19;98372.19;;;8.01;100.00
19672;BME280;9983;51.114;13.788;2022-12-22T07:52:19;98377.34;;;8.03;100.00
19672;BME280;9983;51.114;13.788;2022-12-22T07:57:19;98372.84;;;8.03;100.00
19672;BME280;9983;51.114;13.788;2022-12-22T08:02:20;98378.69;;;8.13;100.00
19672;BME280;9983;51.114;13.788;2022-12-22T08:07:20;98367.09;;;8.06;100.00
19672;BME280;9983;51.114;13.788;2022-12-22T08:12:20;98372.63;;;8.19;100.00
19672;BME280;9983;51.114;13.788;2022-12-22T08:17:20;98360.72;;;8.22;100.00
19672;BME280;9983;51.114;13.788;2022-12-22T08:22:21;98346.44;;;8.29;100.00
19672;BME280;9983;51.114;13.788;2022-12-22T08:27:30;98343.31;;;8.41;100.00
19672;BME280;9983;51.114;13.788;2022-12-22T08:32:32;98326.53;;;8.47;100.00
19672;BME280;9983;51.114;13.788;2022-12-22T08:37:35;98327.31;;;8.83;100.00
19672;BME280;9983;51.114;13.788;2022-12-22T08:42:40;98321.34;;;9.02;100.00
19672;BME280;9983;51.114;13.788;2022-12-22T08:47:40;98320.66;;;9.22;100.00
19672;BME280;9983;51.114;13.788;2022-12-22T08:52:41;98293.53;;;9.25;100.00
19672;BME280;9983;51.114;13.788;2022-12-22T08:57:42;98305.56;;;9.42;100.00
19672;BME280;9983;51.114;13.788;2022-12-22T09:02:42;98301.91;;;9.49;100.00
19672;BME280;9983;51.114;13.788;2022-12-22T09:07:42;98296.56;;;9.49;100.00
19672;BME280;9983;51.114;13.788;2022-12-22T09:12:42;98295.41;;;9.65;100.00
19672;BME280;9983;51.114;13.788;2022-12-22T09:17:43;98290.06;;;9.65;100.00
19672;BME280;9983;51.114;13.788;2022-12-22T09:22:43;98288.41;;;9.64;100.00
19672;BME280;9983;51.114;13.788;2022-12-22T09:27:43;98283.06;;;9.64;100.00
19672;BME280;9983;51.114;13.788;2022-12-22T09:32:43;98268.41;;;9.95;100.00
19672;BME280;9983;51.114;13.788;2022-12-22T09:37:44;98277.50;;;10.07;100.00
19672;BME280;9983;51.114;13.788;2022-12-22T09:42:44;98270.72;;;10.11;100.00
19672;BME280;9983;51.114;13.788;2022-12-22T09:47:48;98261.13;;;10.36;100.00
19672;BME280;9983;51.114;13.788;2022-12-22T09:52:56;98250.22;;;10.44;100.00
19672;BME280;9983;51.114;13.788;2022-12-22T09:57:57;98246.31;;;10.67;100.00
19672;BME280;9983;51.114;13.788;2022-12-22T10:03:26;98240.16;;;10.59;100.00
19672;BME280;9983;51.114;13.788;2022-12-22T10:08:32;98233.97;;;10.79;100.00
19672;BME280;9983;51.114;13.788;2022-12-22T10:13:34;98227.38;;;10.88;100.00
19672;BME280;9983;51.114;13.788;2022-12-22T10:18:34;98216.63;;;10.75;100.00
19672;BME280;9983;51.114;13.788;2022-12-22T10:23:38;98204.28;;;10.74;100.00
19672;BME280;9983;51.114;13.788;2022-12-22T10:34:14;98190.25;;;10.58;100.00
19672;BME280;9983;51.114;13.788;2022-12-22T10:39:20;98191.06;;;10.65;100.00
19672;BME280;9983;51.114;13.788;2022-12-22T10:44:27;98192.72;;;10.67;100.00
19672;BME280;9983;51.114;13.788;2022-12-22T10:49:33;98194.16;;;10.49;100.00
19672;BME280;9983;51.114;13.788;2022-12-22T10:54:34;98193.97;;;10.44;100.00
19672;BME280;9983;51.114;13.788;2022-12-22T11:04:47;98175.81;;;10.33;100.00
19672;BME280;9983;51.114;13.788;2022-12-22T11:09:48;98177.06;;;10.37;100.00
19672;BME280;9983;51.114;13.788;2022-12-22T11:14:57;98166.47;;;10.03;100.00
19672;BME280;9983;51.114;13.788;2022-12-22T11:20:29;98157.69;;;10.35;100.00
19672;BME280;9983;51.114;13.788;2022-12-22T11:25:50;98155.13;;;10.01;100.00
19672;BME280;9983;51.114;13.788;2022-12-22T11:31:26;98148.19;;;10.19;100.00
19672;BME280;9983;51.114;13.788;2022-12-22T11:36:50;98138.31;;;10.33;100.00
19672;BME280;9983;51.114;13.788;2022-12-22T11:47:21;98114.84;;;10.29;100.00
19672;BME280;9983;51.114;13.788;2022-12-22T11:52:51;98125.53;;;10.35;100.00
19672;BME280;9983;51.114;13.788;2022-12-22T11:58:09;98108.66;;;10.28;100.00
19672;BME280;9983;51.114;13.788;2022-12-22T12:03:29;98115.22;;;10.32;100.00
19672;BME280;9983;51.114;13.788;2022-12-22T12:08:51;98111.28;;;10.02;100.00
19672;BME280;9983;51.114;13.788;2022-12-22T12:24:54;98095.41;;;9.87;100.00
19672;BME280;9983;51.114;13.788;2022-12-22T12:30:06;98101.56;;;9.87;100.00
19672;BME280;9983;51.114;13.788;2022-12-22T12:35:42;98100.34;;;9.97;100.00
19672;BME280;9983;51.114;13.788;2022-12-22T12:40:57;98089.63;;;9.97;100.00
19672;BME280;9983;51.114;13.788;2022-12-22T12:51:47;98095.84;;;10.17;100.00
19672;BME280;9983;51.114;13.788;2022-12-22T13:13:03;98090.53;;;10.37;100.00
19672;BME280;9983;51.114;13.788;2022-12-22T13:23:43;98098.69;;;10.75;100.00
19672;BME280;9983;51.114;13.788;2022-12-22T13:28:49;98104.19;;;11.06;100.00
19672;BME280;9983;51.114;13.788;2022-12-22T13:34:02;98100.63;;;11.25;100.00
19672;BME280;9983;51.114;13.788;2022-12-22T13:39:10;98094.41;;;11.31;100.00
19672;BME280;9983;51.114;13.788;2022-12-22T13:44:17;98083.03;;;11.74;100.00
19672;BME280;9983;51.114;13.788;2022-12-22T13:49:18;98092.28;;;11.85;100.00
19672;BME280;9983;51.114;13.788;2022-12-22T13:54:25;98097.34;;;11.99;100.00
19672;BME280;9983;51.114;13.788;2022-12-22T13:59:30;98090.44;;;11.85;100.00
19672;BME280;9983;51.114;13.788;2022-12-22T14:04:33;98091.56;;;12.02;100.00
19672;BME280;9983;51.114;13.788;2022-12-22T14:09:33;98093.63;;;12.50;100.00
19672;BME280;9983;51.114;13.788;2022-12-22T14:14:36;98101.97;;;12.42;100.00
19672;BME280;9983;51.114;13.788;2022-12-22T14:19:37;98111.28;;;12.14;100.00
19672;BME280;9983;51.114;13.788;2022-12-22T14:24:43;98101.88;;;12.55;100.00
19672;BME280;9983;51.114;13.788;2022-12-22T14:29:44;98104.25;;;12.45;100.00
19672;BME280;9983;51.114;13.788;2022-12-22T14:34:51;98099.78;;;12.07;100.00
19672;BME280;9983;51.114;13.788;2022-12-22T14:39:55;98105.72;;;12.41;100.00
19672;BME280;9983;51.114;13.788;2022-12-22T14:44:55;98118.25;;;12.22;100.00
19672;BME280;9983;51.114;13.788;2022-12-22T14:49:59;98118.91;;;12.18;100.00
19672;BME280;9983;51.114;13.788;2022-12-22T14:55:02;98126.28;;;11.97;100.00
19672;BME280;9983;51.114;13.788;2022-12-22T15:00:06;98136.28;;;12.15;100.00
19672;BME280;9983;51.114;13.788;2022-12-22T15:05:23;98133.91;;;12.00;100.00
19672;BME280;9983;51.114;13.788;2022-12-22T15:10:26;98151.78;;;12.20;100.00
19672;BME280;9983;51.114;13.788;2022-12-22T15:15:27;98153.50;;;12.07;100.00
19672;BME280;9983;51.114;13.788;2022-12-22T15:20:30;98167.63;;;11.96;100.00
19672;BME280;9983;51.114;13.788;2022-12-22T15:25:31;98176.81;;;11.75;100.00
19672;BME280;9983;51.114;13.788;2022-12-22T15:30:31;98189.22;;;11.70;100.00
19672;BME280;9983;51.114;13.788;2022-12-22T15:35:33;98201.13;;;11.29;100.00
19672;BME280;9983;51.114;13.788;2022-12-22T15:40:33;98211.28;;;10.88;100.00
19672;BME280;9983;51.114;13.788;2022-12-22T15:45:34;98229.84;;;10.83;100.00
19672;BME280;9983;51.114;13.788;2022-12-22T15:50:41;98241.78;;;11.20;100.00
19672;BME280;9983;51.114;13.788;2022-12-22T15:55:45;98254.56;;;10.98;100.00
19672;BME280;9983;51.114;13.788;2022-12-22T16:00:46;98269.44;;;10.68;100.00
19672;BME280;9983;51.114;13.788;2022-12-22T16:05:46;98281.38;;;10.98;100.00
19672;BME280;9983;51.114;13.788;2022-12-22T16:10:48;98276.03;;;11.11;100.00
19672;BME280;9983;51.114;13.788;2022-12-22T16:15:48;98286.56;;;10.93;100.00
19672;BME280;9983;51.114;13.788;2022-12-22T16:20:49;98284.28;;;11.03;100.00
19672;BME280;9983;51.114;13.788;2022-12-22T16:25:51;98298.72;;;11.02;100.00
19672;BME280;9983;51.114;13.788;2022-12-22T16:30:52;98309.44;;;10.62;100.00
19672;BME280;9983;51.114;13.788;2022-12-22T16:35:52;98328.38;;;10.61;100.00
19672;BME280;9983;51.114;13.788;2022-12-22T16:40:53;98335.06;;;10.24;100.00
19672;BME280;9983;51.114;13.788;2022-12-22T16:45:53;98357.16;;;10.39;100.00
19672;BME280;9983;51.114;13.788;2022-12-22T16:50:53;98368.22;;;10.23;100.00
19672;BME280;9983;51.114;13.788;2022-12-22T16:55:54;98380.56;;;10.17;100.00
19672;BME280;9983;51.114;13.788;2022-12-22T17:00:55;98390.41;;;10.17;100.00
19672;BME280;9983;51.114;13.788;2022-12-22T17:05:57;98400.66;;;10.07;100.00
19672;BME280;9983;51.114;13.788;2022-12-22T17:11:00;98408.47;;;10.02;100.00
19672;BME280;9983;51.114;13.788;2022-12-22T17:16:02;98409.56;;;10.14;100.00
19672;BME280;9983;51.114;13.788;2022-12-22T17:21:04;98420.88;;;10.09;100.00
19672;BME280;9983;51.114;13.788;2022-12-22T17:26:06;98429.94;;;10.08;100.00
19672;BME280;9983;51.114;13.788;2022-12-22T17:31:12;98425.34;;;9.96;100.00
19672;BME280;9983;51.114;13.788;2022-12-22T17:36:25;98431.22;;;9.84;100.00
19672;BME280;9983;51.114;13.788;2022-12-22T17:41:27;98433.13;;;9.97;100.00
19672;BME280;9983;51.114;13.788;2022-12-22T17:46:28;98443.63;;;10.20;100.00
19672;BME280;9983;51.114;13.788;2022-12-22T17:51:28;98439.09;;;10.20;100.00
19672;BME280;9983;51.114;13.788;2022-12-22T17:56:29;98451.50;;;10.28;100.00
19672;BME280;9983;51.114;13.788;2022-12-22T18:01:30;98457.28;;;10.32;100.00
19672;BME280;9983;51.114;13.788;2022-12-22T18:06:33;98468.94;;;10.52;100.00
19672;BME280;9983;51.114;13.788;2022-12-22T18:11:34;98468.44;;;10.35;100.00
19672;BME280;9983;51.114;13.788;2022-12-22T18:16:34;98473.81;;;10.35;100.00
19672;BME280;9983;51.114;13.788;2022-12-22T18:21:34;98479.41;;;10.47;100.00
19672;BME280;9983;51.114;13.788;2022-12-22T18:26:35;98498.13;;;10.40;100.00
19672;BME280;9983;51.114;13.788;2022-12-22T18:31:35;98491.91;;;10.33;100.00
19672;BME280;9983;51.114;13.788;2022-12-22T18:36:35;98491.53;;;10.36;100.00
19672;BME280;9983;51.114;13.788;2022-12-22T18:41:36;98494.06;;;10.44;100.00
19672;BME280;9983;51.114;13.788;2022-12-22T18:46:36;98491.91;;;10.33;100.00
19672;BME280;9983;51.114;13.788;2022-12-22T18:51:37;98491.72;;;10.07;100.00
19672;BME280;9983;51.114;13.788;2022-12-22T18:56:37;98481.13;;;10.20;100.00
19672;BME280;9983;51.114;13.788;2022-12-22T19:01:37;98487.72;;;10.24;100.00
19672;BME280;9983;51.114;13.788;2022-12-22T19:06:37;98487.09;;;10.56;100.00
19672;BME280;9983;51.114;13.788;2022-12-22T19:11:37;98482.53;;;10.50;100.00
19672;BME280;9983;51.114;13.788;2022-12-22T19:16:38;98482.47;;;10.37;100.00
19672;BME280;9983;51.114;13.788;2022-12-22T19:21:38;98485.69;;;10.26;100.00
19672;BME280;9983;51.114;13.788;2022-12-22T19:26:39;98496.06;;;10.36;100.00
19672;BME280;9983;51.114;13.788;2022-12-22T19:31:39;98491.91;;;10.33;100.00
19672;BME280;9983;51.114;13.788;2022-12-22T19:36:40;98489.78;;;10.22;100.00
19672;BME280;9983;51.114;13.788;2022-12-22T19:41:43;98489.00;;;10.28;100.00
19672;BME280;9983;51.114;13.788;2022-12-22T19:46:45;98495.06;;;10.15;100.00
19672;BME280;9983;51.114;13.788;2022-12-22T19:51:46;98500.09;;;10.25;100.00
19672;BME280;9983;51.114;13.788;2022-12-22T19:56:52;98493.47;;;10.21;100.00
19672;BME280;9983;51.114;13.788;2022-12-22T20:01:53;98488.38;;;10.26;100.00
19672;BME280;9983;51.114;13.788;2022-12-22T20:06:53;98491.72;;;10.07;100.00
19672;BME280;9983;51.114;13.788;2022-12-22T20:11:53;98498.78;;;9.65;100.00
19672;BME280;9983;51.114;13.788;2022-12-22T20:16:53;98488.31;;;9.92;100.00
19672;BME280;9983;51.114;13.788;2022-12-22T20:21:54;98478.38;;;9.85;100.00
19672;BME280;9983;51.114;13.788;2022-12-22T20:26:54;98487.72;;;9.68;100.00
19672;BME280;9983;51.114;13.788;2022-12-22T20:31:54;98491.59;;;9.66;100.00
19672;BME280;9983;51.114;13.788;2022-12-22T20:36:54;98479.81;;;9.60;100.00
19672;BME280;9983;51.114;13.788;2022-12-22T20:41:56;98476.63;;;9.50;100.00
19672;BME280;9983;51.114;13.788;2022-12-22T20:46:57;98479.13;;;9.51;100.00
19672;BME280;9983;51.114;13.788;2022-12-22T20:51:57;98487.97;;;9.31;100.00
19672;BME280;9983;51.114;13.788;2022-12-22T20:56:57;98485.75;;;9.34;100.00
19672;BME280;9983;51.114;13.788;2022-12-22T21:01:58;98493.16;;;8.96;100.00
19672;BME280;9983;51.114;13.788;2022-12-22T21:06:58;98495.47;;;9.21;100.00
19672;BME280;9983;51.114;13.788;2022-12-22T21:11:58;98495.09;;;9.24;100.00
19672;BME280;9983;51.114;13.788;2022-12-22T21:16:59;98485.69;;;9.28;100.00
19672;BME280;9983;51.114;13.788;2022-12-22T21:21:59;98487.56;;;9.12;100.00
19672;BME280;9983;51.114;13.788;2022-12-22T21:26:59;98484.78;;;9.21;100.00
19672;BME280;9983;51.114;13.788;2022-12-22T21:31:59;98476.88;;;9.12;100.00
19672;BME280;9983;51.114;13.788;2022-12-22T21:37:00;98478.16;;;9.17;100.00
19672;BME280;9983;51.114;13.788;2022-12-22T21:42:01;98473.81;;;8.94;100.00
19672;BME280;9983;51.114;13.788;2022-12-22T21:47:04;98454.31;;;8.79;100.00
19672;BME280;9983;51.114;13.788;2022-12-22T21:52:05;98460.81;;;8.70;100.00
19672;BME280;9983;51.114;13.788;2022-12-22T21:57:05;98458.53;;;8.88;100.00
19672;BME280;9983;51.114;13.788;2022-12-22T22:02:14;98463.38;;;8.78;100.00
19672;BME280;9983;51.114;13.788;2022-12-22T22:07:14;98461.84;;;8.90;100.00
19672;BME280;9983;51.114;13.788;2022-12-22T22:12:15;98450.13;;;8.70;100.00
19672;BME280;9983;51.114;13.788;2022-12-22T22:17:35;98441.34;;;8.76;100.00
19672;BME280;9983;51.114;13.788;2022-12-22T22:22:35;98436.63;;;8.78;100.00
19672;BME280;9983;51.114;13.788;2022-12-22T22:27:36;98430.13;;;8.66;100.00
19672;BME280;9983;51.114;13.788;2022-12-22T22:32:36;98426.25;;;8.68;100.00
19672;BME280;9983;51.114;13.788;2022-12-22T22:37:37;98422.88;;;8.60;100.00
19672;BME280;9983;51.114;13.788;2022-12-22T22:42:39;98412.09;;;8.38;100.00
19672;BME280;9983;51.114;13.788;2022-12-22T22:47:39;98406.66;;;8.47;100.00
19672;BME280;9983;51.114;13.788;2022-12-22T22:52:39;98395.88;;;8.55;100.00
19672;BME280;9983;51.114;13.788;2022-12-22T22:57:41;98382.91;;;8.52;100.00
19672;BME280;9983;51.114;13.788;2022-12-22T23:02:42;98381.09;;;8.08;100.00
19672;BME280;9983;51.114;13.788;2022-12-22T23:07:42;98372.69;;;8.26;100.00
19672;BME280;9983;51.114;13.788;2022-12-22T23:12:42;98374.47;;;8.33;100.00
19672;BME280;9983;51.114;13.788;2022-12-22T23:17:42;98372.22;;;8.22;100.00
19672;BME280;9983;51.114;13.788;2022-12-22T23:22:43;98360.53;;;8.38;100.00
19672;BME280;9983;51.114;13.788;2022-12-22T23:27:43;98366.16;;;8.28;100.00
19672;BME280;9983;51.114;13.788;2022-12-22T23:32:43;98358.97;;;8.44;100.00
19672;BME280;9983;51.114;13.788;2022-12-22T23:37:43;98339.09;;;8.31;100.00
19672;BME280;9983;51.114;13.788;2022-12-22T23:42:43;98331.75;;;8.33;100.00
19672;BME280;9983;51.114;13.788;2022-12-22T23:47:44;98338.94;;;8.18;100.00
19672;BME280;9983;51.114;13.788;2022-12-22T23:52:46;98335.28;;;7.90;100.00
19672;BME280;9983;51.114;13.788;2022-12-22T23:57:49;98328.47;;;8.02;100.00
